Time;durP1;ratioP1;P1;durP2;ratioP2;P2;SDS_P1;SDS_P2;PMS_P1;PMS_P2;Temp;Humidity;BMP_temperature;BMP_pressure;BME280_temperature;BME280_humidity;BME280_pressure;Samples;Min_cycle;Max_cycle;Signal;HPM_P1;HPM_P2
2022/10/15 00:02:06;;;;;;;31.73;14.63;;;11.50;99.90;;;;;;5092994;28;20099;-62
2022/10/15 00:04:32;;;;;;;31.85;15.15;;;11.50;99.90;;;;;;5092373;28;20032;-53
2022/10/15 00:06:58;;;;;;;32.08;14.25;;;11.60;99.90;;;;;;5090638;28;20024;-55
2022/10/15 00:09:24;;;;;;;33.55;14.80;;;11.60;99.90;;;;;;5092552;28;20073;-53
2022/10/15 00:11:50;;;;;;;40.78;15.98;;;11.60;99.90;;;;;;5092091;28;20136;-58
2022/10/15 00:14:16;;;;;;;32.08;14.02;;;11.70;99.90;;;;;;5092833;28;20012;-65
2022/10/15 00:16:41;;;;;;;29.77;14.68;;;11.70;99.90;;;;;;5092794;28;20086;-56
2022/10/15 00:19:09;;;;;;;31.77;13.82;;;11.60;99.90;;;;;;5091528;28;20372;-64
2022/10/15 00:21:34;;;;;;;27.40;14.05;;;11.60;99.90;;;;;;5092338;28;20373;-65
2022/10/15 00:24:00;;;;;;;30.80;14.80;;;11.60;99.90;;;;;;5090939;28;20031;-58
2022/10/15 00:26:27;;;;;;;28.60;13.80;;;11.60;99.90;;;;;;5091453;28;20024;-56
2022/10/15 00:28:55;;;;;;;30.05;14.30;;;11.60;99.90;;;;;;5092348;28;20028;-55
2022/10/15 00:31:23;;;;;;;27.08;14.27;;;11.60;99.90;;;;;;5091981;28;20016;-54
2022/10/15 00:33:50;;;;;;;29.65;15.45;;;11.60;99.90;;;;;;5091485;28;20024;-55
2022/10/15 00:36:18;;;;;;;29.65;14.45;;;11.50;99.90;;;;;;5091906;28;20508;-50
2022/10/15 00:38:44;;;;;;;32.70;15.77;;;11.50;99.90;;;;;;5092012;28;20031;-55
2022/10/15 00:41:19;;;;;;;28.38;15.23;;;11.50;99.90;;;;;;5092007;28;20024;-55
2022/10/15 00:43:51;;;;;;;29.10;14.05;;;11.40;99.90;;;;;;5091989;28;20392;-56
2022/10/15 00:46:21;;;;;;;26.23;13.25;;;11.30;99.90;;;;;;5092045;28;20067;-52
2022/10/15 00:48:50;;;;;;;24.17;12.55;;;11.30;99.90;;;;;;5091240;28;20043;-51
2022/10/15 00:51:18;;;;;;;24.05;12.27;;;11.30;99.90;;;;;;5091820;28;20020;-50
2022/10/15 00:53:44;;;;;;;24.35;12.82;;;11.20;99.90;;;;;;5091487;28;20027;-50
2022/10/15 00:56:11;;;;;;;26.15;12.82;;;11.20;99.90;;;;;;5091424;28;20095;-53
2022/10/15 00:58:36;;;;;;;24.90;12.88;;;11.10;99.90;;;;;;5091468;28;20032;-52
2022/10/15 01:01:02;;;;;;;26.48;14.55;;;11.10;99.90;;;;;;5091174;28;20476;-54
2022/10/15 01:03:28;;;;;;;27.50;13.45;;;11.10;99.90;;;;;;5091430;28;20036;-50
2022/10/15 01:05:54;;;;;;;24.63;12.93;;;11.00;99.90;;;;;;5091540;28;20099;-54
2022/10/15 01:08:19;;;;;;;25.60;13.23;;;11.10;99.90;;;;;;5090733;28;20032;-61
2022/10/15 01:10:54;;;;;;;23.55;13.02;;;11.00;99.90;;;;;;5091492;28;20477;-59
2022/10/15 01:13:44;;;;;;;23.73;13.38;;;11.00;99.90;;;;;;5090193;28;20020;-65
2022/10/15 01:16:22;;;;;;;22.63;11.93;;;10.90;99.90;;;;;;5091137;28;20024;-63
2022/10/15 01:19:04;;;;;;;22.67;11.98;;;10.90;99.90;;;;;;5091890;28;20173;-60
2022/10/15 01:22:13;;;;;;;23.23;11.57;;;10.90;99.90;;;;;;5090978;28;20052;-52
2022/10/15 01:24:48;;;;;;;21.65;11.63;;;10.80;99.90;;;;;;5068066;28;20032;-50
2022/10/15 01:27:26;;;;;;;21.90;11.57;;;10.80;99.90;;;;;;5089201;28;20032;-53
2022/10/15 01:30:13;;;;;;;29.55;14.30;;;10.80;99.90;;;;;;5090693;28;20016;-56
2022/10/15 01:33:05;;;;;;;33.78;15.45;;;10.80;99.90;;;;;;5090691;28;20123;-55
2022/10/15 01:35:34;;;;;;;26.30;14.10;;;10.70;99.90;;;;;;5086606;28;20028;-51
2022/10/15 01:38:29;;;;;;;23.88;12.52;;;10.80;99.90;;;;;;5090560;28;20020;-56
2022/10/15 01:41:26;;;;;;;24.02;11.25;;;10.90;99.90;;;;;;5090102;28;20475;-54
2022/10/15 01:44:17;;;;;;;25.90;12.38;;;11.00;99.90;;;;;;5090163;28;20127;-51
2022/10/15 01:46:57;;;;;;;23.35;12.27;;;11.10;99.90;;;;;;5090610;28;20028;-49
2022/10/15 01:49:27;;;;;;;24.65;13.18;;;11.10;99.90;;;;;;5090567;28;20036;-53
2022/10/15 01:51:56;;;;;;;22.90;12.95;;;11.20;99.90;;;;;;5090306;28;20022;-53
2022/10/15 01:54:25;;;;;;;24.17;12.45;;;11.30;99.90;;;;;;5090466;28;20028;-49
2022/10/15 01:56:52;;;;;;;25.63;12.75;;;11.40;99.90;;;;;;5090758;28;20376;-51
2022/10/15 01:59:26;;;;;;;21.10;12.20;;;11.50;99.90;;;;;;5090493;28;20047;-52
2022/10/15 02:01:51;;;;;;;24.25;12.52;;;11.50;99.90;;;;;;5090980;28;20036;-54
2022/10/15 02:04:23;;;;;;;21.80;11.85;;;11.50;99.90;;;;;;5090702;28;20438;-57
2022/10/15 02:06:57;;;;;;;23.48;13.00;;;11.60;99.90;;;;;;5092681;28;20028;-57
2022/10/15 02:09:45;;;;;;;25.40;13.68;;;11.60;99.90;;;;;;5090171;28;20089;-57
2022/10/15 02:12:23;;;;;;;27.38;12.55;;;11.60;99.90;;;;;;5090078;28;20020;-58
2022/10/15 02:14:58;;;;;;;24.67;13.30;;;11.60;99.90;;;;;;5090624;28;20045;-59
2022/10/15 02:17:34;;;;;;;26.50;13.82;;;11.60;99.90;;;;;;5090704;28;20387;-58
2022/10/15 02:20:07;;;;;;;34.38;17.20;;;11.70;99.90;;;;;;5092708;28;20089;-59
2022/10/15 02:22:42;;;;;;;49.47;22.52;;;11.70;99.90;;;;;;5095040;28;20086;-65
2022/10/15 02:25:13;;;;;;;50.33;25.30;;;11.70;99.90;;;;;;5095114;28;20042;-64
2022/10/15 02:27:40;;;;;;;45.20;23.42;;;11.80;99.90;;;;;;5094313;28;20024;-64
2022/10/15 02:30:08;;;;;;;49.38;22.25;;;11.80;99.90;;;;;;5094677;28;20464;-58
2022/10/15 02:32:36;;;;;;;52.25;25.65;;;11.80;99.90;;;;;;5093709;28;20066;-57
2022/10/15 02:35:02;;;;;;;75.43;33.78;;;11.80;99.90;;;;;;5092906;28;20442;-57
2022/10/15 02:37:29;;;;;;;74.43;35.28;;;11.80;99.90;;;;;;5094443;28;20099;-51
2022/10/15 02:39:55;;;;;;;69.93;33.13;;;11.80;99.90;;;;;;5094124;28;20032;-57
2022/10/15 02:42:21;;;;;;;71.05;33.53;;;11.80;99.90;;;;;;5093727;28;20422;-58
2022/10/15 02:44:47;;;;;;;66.95;34.78;;;11.80;99.90;;;;;;5094951;28;20040;-67
2022/10/15 02:47:13;;;;;;;63.00;29.75;;;11.80;99.90;;;;;;5094147;28;20103;-65
2022/10/15 02:49:39;;;;;;;55.97;27.55;;;11.90;99.90;;;;;;5094584;28;20039;-61
2022/10/15 02:52:04;;;;;;;63.17;27.83;;;11.80;99.90;;;;;;5093049;28;20333;-65
2022/10/15 02:54:30;;;;;;;55.63;26.63;;;11.80;99.90;;;;;;5093467;28;20036;-65
2022/10/15 02:56:55;;;;;;;72.43;32.38;;;11.90;99.90;;;;;;5094537;28;20086;-64
2022/10/15 02:59:21;;;;;;;76.72;33.85;;;11.90;99.90;;;;;;5094328;28;20062;-56
2022/10/15 03:01:47;;;;;;;76.63;35.42;;;11.90;99.90;;;;;;5094103;28;20050;-67
2022/10/15 03:04:12;;;;;;;76.03;34.85;;;11.90;99.90;;;;;;5094059;28;20044;-66
2022/10/15 03:06:38;;;;;;;78.53;32.95;;;11.80;99.90;;;;;;5094148;28;20028;-67
2022/10/15 03:09:04;;;;;;;75.82;32.95;;;11.80;99.90;;;;;;5093400;28;20023;-65
2022/10/15 03:11:29;;;;;;;68.97;30.15;;;11.80;99.90;;;;;;5094033;28;20126;-64
2022/10/15 03:13:55;;;;;;;64.65;29.10;;;11.80;99.90;;;;;;5092808;28;20042;-68
2022/10/15 03:16:20;;;;;;;56.80;24.63;;;11.80;99.90;;;;;;5093465;28;20020;-59
2022/10/15 03:18:46;;;;;;;50.00;22.65;;;11.70;99.90;;;;;;5093667;28;20024;-66
2022/10/15 03:21:12;;;;;;;43.45;19.50;;;11.70;99.90;;;;;;5094002;28;20044;-65
2022/10/15 03:23:37;;;;;;;43.75;21.42;;;11.70;99.90;;;;;;5092980;28;20031;-59
2022/10/15 03:26:03;;;;;;;51.45;21.65;;;11.60;99.90;;;;;;5093783;28;20529;-67
2022/10/15 03:28:29;;;;;;;48.47;20.63;;;11.50;99.90;;;;;;5093531;28;20214;-54
2022/10/15 03:30:54;;;;;;;45.17;20.35;;;11.40;99.90;;;;;;5092696;28;20036;-68
2022/10/15 03:33:20;;;;;;;39.72;19.67;;;11.30;99.90;;;;;;5092245;28;20024;-57
2022/10/15 03:35:46;;;;;;;38.97;18.70;;;11.20;99.90;;;;;;5091115;28;20016;-52
2022/10/15 03:38:12;;;;;;;40.67;19.42;;;11.20;99.90;;;;;;5093251;28;20551;-55
2022/10/15 03:40:37;;;;;;;36.20;16.90;;;11.10;99.90;;;;;;5093169;28;20099;-49
2022/10/15 03:43:03;;;;;;;29.05;14.43;;;11.10;99.90;;;;;;5093161;28;20016;-57
2022/10/15 03:45:29;;;;;;;30.05;15.30;;;11.00;99.90;;;;;;5092993;28;20068;-54
2022/10/15 03:47:54;;;;;;;26.10;13.93;;;10.90;99.90;;;;;;5092706;28;20031;-50
2022/10/15 03:50:20;;;;;;;30.08;15.30;;;10.90;99.90;;;;;;5092169;28;20103;-53
2022/10/15 03:52:45;;;;;;;28.60;14.43;;;10.80;99.90;;;;;;5091749;28;20514;-54
2022/10/15 03:55:11;;;;;;;25.30;13.73;;;10.80;99.90;;;;;;5092306;28;20024;-52
2022/10/15 03:57:38;;;;;;;28.40;14.65;;;10.80;99.90;;;;;;5092987;28;20020;-52
2022/10/15 04:00:06;;;;;;;30.75;15.13;;;10.70;99.90;;;;;;5092797;28;20047;-53
2022/10/15 04:02:32;;;;;;;28.00;15.23;;;10.70;99.90;;;;;;5091868;28;20487;-51
2022/10/15 04:04:58;;;;;;;27.08;14.00;;;10.70;99.90;;;;;;5092647;28;20345;-52
2022/10/15 04:07:23;;;;;;;26.27;14.27;;;10.70;99.90;;;;;;5092432;28;20012;-52
2022/10/15 04:09:49;;;;;;;30.67;16.55;;;10.70;99.90;;;;;;5092526;28;20464;-55
2022/10/15 04:12:15;;;;;;;29.55;15.63;;;10.70;99.90;;;;;;5093490;28;20016;-53
2022/10/15 04:14:41;;;;;;;27.88;15.27;;;10.80;99.90;;;;;;5092758;28;20476;-57
2022/10/15 04:17:06;;;;;;;28.13;15.30;;;10.90;99.90;;;;;;5092186;28;20024;-59
2022/10/15 04:19:32;;;;;;;29.83;16.70;;;10.90;99.90;;;;;;5092295;28;20099;-60
2022/10/15 04:21:58;;;;;;;28.40;15.43;;;11.00;99.90;;;;;;5092550;28;20028;-61
2022/10/15 04:24:23;;;;;;;30.83;15.27;;;11.10;99.90;;;;;;5091516;28;20044;-62
2022/10/15 04:26:49;;;;;;;29.85;14.85;;;11.10;99.90;;;;;;5092608;28;20043;-64
2022/10/15 04:29:15;;;;;;;41.58;17.85;;;11.20;99.90;;;;;;5090844;28;20027;-55
2022/10/15 04:31:41;;;;;;;39.70;18.15;;;11.20;99.90;;;;;;5091567;28;20023;-59
2022/10/15 04:34:07;;;;;;;47.25;18.83;;;11.30;99.90;;;;;;5091424;28;20326;-61
2022/10/15 04:36:33;;;;;;;46.50;19.40;;;11.40;99.90;;;;;;5091884;28;20024;-63
2022/10/15 04:38:59;;;;;;;46.22;20.02;;;11.40;99.90;;;;;;5091953;28;20116;-61
2022/10/15 04:41:25;;;;;;;44.47;19.17;;;11.40;99.90;;;;;;5091370;28;20099;-66
2022/10/15 04:43:51;;;;;;;41.70;18.30;;;11.40;99.90;;;;;;5092540;28;20032;-58
2022/10/15 04:46:17;;;;;;;43.15;17.58;;;11.40;99.90;;;;;;5091448;28;20012;-62
2022/10/15 04:48:42;;;;;;;37.90;17.05;;;11.40;99.90;;;;;;5092141;28;20024;-63
2022/10/15 04:51:17;;;;;;;46.72;18.50;;;11.40;99.90;;;;;;5092425;28;20104;-62
2022/10/15 04:53:43;;;;;;;38.60;17.92;;;11.30;99.90;;;;;;5083844;28;20162;-66
2022/10/15 04:56:14;;;;;;;33.45;16.45;;;11.30;99.90;;;;;;5071687;28;20119;-62
2022/10/15 04:58:41;;;;;;;37.33;17.77;;;11.20;99.90;;;;;;5070775;28;20035;-64
2022/10/15 05:01:11;;;;;;;41.78;20.27;;;11.20;99.90;;;;;;5071873;28;20020;-61
2022/10/15 05:03:37;;;;;;;37.90;18.35;;;11.20;99.90;;;;;;5071505;28;20063;-61
2022/10/15 05:06:08;;;;;;;36.95;18.40;;;11.20;99.90;;;;;;5071309;28;20404;-66
2022/10/15 05:08:35;;;;;;;44.65;19.60;;;11.20;99.90;;;;;;5071863;28;20020;-62
2022/10/15 05:11:05;;;;;;;44.90;18.42;;;11.20;99.90;;;;;;5071951;28;20063;-62
2022/10/15 05:13:32;;;;;;;44.40;22.20;;;11.30;99.90;;;;;;5069525;28;20487;-63
2022/10/15 05:16:08;;;;;;;45.45;20.15;;;11.30;99.90;;;;;;5071665;28;20664;-65
2022/10/15 05:18:34;;;;;;;48.63;21.08;;;11.30;99.90;;;;;;5071250;28;20028;-63
2022/10/15 05:21:03;;;;;;;47.72;20.92;;;11.30;99.90;;;;;;5070555;28;20458;-56
2022/10/15 05:23:28;;;;;;;50.08;20.60;;;11.30;99.90;;;;;;5071313;28;20073;-58
2022/10/15 05:25:54;;;;;;;46.15;21.17;;;11.40;99.90;;;;;;5071217;28;20021;-63
2022/10/15 05:28:20;;;;;;;51.45;21.63;;;11.40;99.90;;;;;;5070478;28;20043;-64
2022/10/15 05:30:45;;;;;;;50.30;22.65;;;11.40;99.90;;;;;;5070669;28;20095;-61
2022/10/15 05:33:11;;;;;;;61.20;25.70;;;11.40;99.90;;;;;;5070932;28;20024;-63
2022/10/15 05:35:37;;;;;;;64.90;28.10;;;11.50;99.90;;;;;;5070171;28;20032;-64
2022/10/15 05:38:03;;;;;;;66.32;26.40;;;11.50;99.90;;;;;;5070801;28;20054;-57
2022/10/15 05:40:29;;;;;;;51.47;24.00;;;11.50;99.90;;;;;;5070181;28;20020;-53
2022/10/15 05:42:55;;;;;;;49.83;22.10;;;11.60;99.90;;;;;;5069733;28;20021;-58
2022/10/15 05:45:21;;;;;;;47.40;21.63;;;11.70;99.90;;;;;;5070666;28;20480;-55
2022/10/15 05:47:46;;;;;;;46.40;21.25;;;11.70;99.90;;;;;;5070208;28;20037;-55
2022/10/15 05:50:12;;;;;;;41.20;20.77;;;11.80;99.90;;;;;;5071174;28;20034;-56
2022/10/15 05:52:38;;;;;;;45.88;20.80;;;11.80;99.90;;;;;;5070283;28;20027;-52
2022/10/15 05:55:04;;;;;;;45.25;22.50;;;11.80;99.90;;;;;;5069485;28;20016;-54
2022/10/15 05:57:29;;;;;;;54.00;24.40;;;11.90;99.90;;;;;;5081867;28;20032;-54
2022/10/15 05:59:55;;;;;;;50.67;24.10;;;11.90;99.90;;;;;;5089891;28;20035;-63
2022/10/15 06:02:20;;;;;;;61.97;26.15;;;12.00;99.90;;;;;;5088819;28;20028;-56
2022/10/15 06:04:47;;;;;;;60.58;26.73;;;12.00;99.90;;;;;;5089751;28;20425;-56
2022/10/15 06:07:13;;;;;;;61.83;25.98;;;12.00;99.90;;;;;;5089796;28;20020;-58
2022/10/15 06:09:38;;;;;;;56.35;24.55;;;12.10;99.90;;;;;;5088830;28;20078;-56
2022/10/15 06:12:04;;;;;;;52.53;24.17;;;12.10;99.90;;;;;;5089819;28;20032;-52
2022/10/15 06:14:30;;;;;;;51.45;24.80;;;12.10;99.90;;;;;;5089753;28;20021;-56
2022/10/15 06:16:55;;;;;;;55.50;26.20;;;12.20;99.90;;;;;;5090058;28;20107;-53
2022/10/15 06:19:21;;;;;;;56.88;24.13;;;12.20;99.90;;;;;;5090182;28;20444;-55
2022/10/15 06:21:46;;;;;;;52.40;25.13;;;12.20;99.90;;;;;;5090460;28;20442;-56
2022/10/15 06:24:12;;;;;;;67.03;28.33;;;12.30;99.90;;;;;;5089869;28;20122;-54
2022/10/15 06:26:38;;;;;;;62.08;27.52;;;12.30;99.90;;;;;;5089807;28;20017;-53
2022/10/15 06:29:04;;;;;;;59.20;26.35;;;12.40;99.90;;;;;;5090336;28;20035;-56
2022/10/15 06:31:31;;;;;;;57.42;25.98;;;12.40;99.90;;;;;;5088979;28;20502;-51
2022/10/15 06:33:56;;;;;;;54.58;24.05;;;12.40;99.90;;;;;;5085588;28;20020;-53
2022/10/15 06:36:24;;;;;;;57.70;25.45;;;12.40;99.90;;;;;;5089348;28;20077;-61
2022/10/15 06:38:50;;;;;;;65.97;25.85;;;12.40;99.90;;;;;;5089277;28;20112;-55
2022/10/15 06:41:16;;;;;;;82.10;32.08;;;12.50;99.90;;;;;;5089495;28;20103;-58
2022/10/15 06:43:41;;;;;;;74.20;31.05;;;12.50;99.90;;;;;;5088646;28;20442;-52
2022/10/15 06:46:07;;;;;;;69.28;29.58;;;12.60;99.90;;;;;;5090659;28;20016;-55
2022/10/15 06:48:33;;;;;;;66.25;27.40;;;12.60;99.90;;;;;;5090096;28;20040;-56
2022/10/15 06:51:00;;;;;;;68.53;28.08;;;12.60;99.90;;;;;;5089694;28;20126;-56
2022/10/15 06:53:26;;;;;;;78.78;30.30;;;12.70;99.90;;;;;;5090113;28;20096;-55
2022/10/15 06:55:56;;;;;;;65.80;26.75;;;12.70;99.90;;;;;;5090396;28;20023;-55
2022/10/15 06:58:22;;;;;;;66.57;27.65;;;12.70;99.90;;;;;;5089325;28;20535;-60
2022/10/15 07:00:48;;;;;;;76.90;30.42;;;12.70;99.90;;;;;;5090262;28;20111;-58
2022/10/15 07:03:13;;;;;;;83.32;32.25;;;12.80;99.90;;;;;;5090439;28;20065;-54
2022/10/15 07:05:39;;;;;;;79.47;31.67;;;12.80;99.90;;;;;;5091652;28;20028;-55
2022/10/15 07:08:04;;;;;;;81.53;31.63;;;12.80;99.90;;;;;;5094072;28;20077;-55
2022/10/15 07:10:30;;;;;;;71.82;29.80;;;12.80;99.90;;;;;;5093642;28;20093;-54
2022/10/15 07:12:59;;;;;;;69.38;27.48;;;12.90;99.90;;;;;;5093719;28;20027;-56
2022/10/15 07:15:25;;;;;;;71.30;29.58;;;12.90;99.90;;;;;;5092981;28;20387;-53
2022/10/15 07:18:00;;;;;;;66.72;27.80;;;13.00;99.90;;;;;;5071999;28;20017;-54
2022/10/15 07:20:26;;;;;;;78.78;31.75;;;13.00;99.90;;;;;;5080904;28;20384;-57
2022/10/15 07:22:59;;;;;;;77.13;31.65;;;13.00;99.90;;;;;;5091683;28;20004;-59
2022/10/15 07:25:26;;;;;;;91.55;35.85;;;13.00;99.90;;;;;;5089790;28;20034;-61
2022/10/15 07:27:54;;;;;;;88.25;36.83;;;13.10;99.90;;;;;;5092384;28;20024;-49
2022/10/15 07:30:20;;;;;;;95.88;39.30;;;13.10;99.90;;;;;;5092529;28;20333;-52
2022/10/15 07:32:46;;;;;;;81.10;34.40;;;13.20;99.90;;;;;;5092669;28;20050;-54
2022/10/15 07:35:11;;;;;;;95.60;38.38;;;13.20;99.90;;;;;;5091741;28;20583;-55
2022/10/15 07:37:37;;;;;;;97.00;37.05;;;13.20;99.90;;;;;;5092502;28;20020;-61
2022/10/15 07:40:03;;;;;;;92.65;35.42;;;13.30;99.90;;;;;;5092110;28;20028;-54
2022/10/15 07:42:29;;;;;;;68.70;28.13;;;13.30;99.90;;;;;;5092536;28;20039;-52
2022/10/15 07:44:54;;;;;;;75.25;30.63;;;13.30;99.90;;;;;;5092752;28;20122;-54
2022/10/15 07:47:20;;;;;;;87.43;34.15;;;13.40;99.90;;;;;;5091844;28;20028;-54
2022/10/15 07:49:46;;;;;;;88.28;35.75;;;13.40;99.90;;;;;;5093062;28;20028;-54
2022/10/15 07:52:11;;;;;;;75.75;30.88;;;13.50;99.90;;;;;;5092322;28;20464;-53
2022/10/15 07:54:37;;;;;;;86.28;32.72;;;13.50;99.90;;;;;;5091740;28;20501;-54
2022/10/15 07:57:02;;;;;;;82.90;33.97;;;13.60;99.90;;;;;;5090820;28;20073;-53
2022/10/15 07:59:28;;;;;;;84.68;35.95;;;13.60;99.90;;;;;;5091972;28;20076;-53
2022/10/15 08:01:54;;;;;;;90.07;38.15;;;13.70;99.90;;;;;;5091494;28;20165;-54
2022/10/15 08:04:19;;;;;;;105.47;41.00;;;13.80;99.90;;;;;;5092667;28;20025;-53
2022/10/15 08:06:45;;;;;;;92.18;40.88;;;13.80;99.90;;;;;;5091647;28;20560;-59
2022/10/15 08:09:11;;;;;;;79.50;33.25;;;13.80;99.90;;;;;;5091572;28;20419;-58
2022/10/15 08:11:37;;;;;;;81.45;33.75;;;13.80;99.90;;;;;;5092039;28;20020;-53
2022/10/15 08:14:03;;;;;;;73.90;35.22;;;13.90;99.90;;;;;;5092044;28;20108;-51
2022/10/15 08:16:29;;;;;;;68.80;31.42;;;14.00;99.90;;;;;;5090367;28;20031;-53
2022/10/15 08:18:54;;;;;;;60.63;24.98;;;14.00;99.90;;;;;;5091855;28;20028;-52
2022/10/15 08:21:20;;;;;;;50.97;21.83;;;14.10;99.90;;;;;;5091697;28;20036;-50
2022/10/15 08:23:46;;;;;;;43.60;18.42;;;14.20;99.90;;;;;;5091065;28;20028;-58
2022/10/15 08:26:12;;;;;;;44.70;20.48;;;14.30;99.90;;;;;;5091468;28;20393;-57
2022/10/15 08:28:37;;;;;;;51.35;21.63;;;14.40;99.90;;;;;;5089107;28;20028;-57
2022/10/15 08:31:03;;;;;;;57.35;25.45;;;14.60;99.90;;;;;;5090426;28;20024;-53
2022/10/15 08:33:29;;;;;;;53.65;24.25;;;14.60;99.90;;;;;;5090510;28;20413;-57
2022/10/15 08:35:55;;;;;;;52.03;25.38;;;14.60;99.90;;;;;;5090788;28;20122;-57
2022/10/15 08:38:30;;;;;;;45.53;22.88;;;14.70;99.90;;;;;;5090120;28;20031;-57
2022/10/15 08:40:58;;;;;;;49.50;22.95;;;14.70;99.90;;;;;;5088512;28;20016;-63
2022/10/15 08:43:29;;;;;;;41.17;19.60;;;14.70;99.90;;;;;;5087827;28;20107;-53
2022/10/15 08:46:00;;;;;;;42.20;21.75;;;14.80;99.90;;;;;;5091378;28;20055;-57
2022/10/15 08:49:02;;;;;;;39.42;19.23;;;14.90;99.90;;;;;;5078316;28;20031;-60
2022/10/15 08:51:43;;;;;;;35.72;16.15;;;14.90;99.90;;;;;;5067555;28;20093;-58
2022/10/15 08:54:14;;;;;;;39.88;19.20;;;14.90;99.90;;;;;;5088396;28;20536;-52
2022/10/15 08:56:44;;;;;;;41.42;19.77;;;14.90;99.90;;;;;;5090833;28;20032;-55
2022/10/15 08:59:39;;;;;;;37.13;18.73;;;14.90;99.90;;;;;;5090527;28;20028;-61
2022/10/15 09:02:23;;;;;;;50.00;22.70;;;15.00;99.90;;;;;;5091395;28;20020;-57
2022/10/15 09:04:58;;;;;;;44.70;22.52;;;15.10;99.90;;;;;;5090196;28;20036;-53
2022/10/15 09:07:34;;;;;;;37.08;19.13;;;15.20;99.90;;;;;;5090893;28;20020;-61
2022/10/15 09:10:14;;;;;;;39.78;20.77;;;15.40;99.90;;;;;;5091059;28;20051;-58
2022/10/15 09:13:04;;;;;;;37.60;17.92;;;15.50;99.90;;;;;;5090229;28;20032;-57
2022/10/15 09:15:39;;;;;;;34.08;18.23;;;15.50;99.90;;;;;;5089864;28;20054;-55
2022/10/15 09:18:16;;;;;;;40.42;20.30;;;15.60;99.90;;;;;;5091038;28;20026;-58
2022/10/15 09:20:42;;;;;;;41.20;21.55;;;15.60;99.90;;;;;;5089796;28;20071;-55
2022/10/15 09:23:16;;;;;;;35.25;19.80;;;15.50;99.90;;;;;;5090418;28;20023;-62
2022/10/15 09:25:44;;;;;;;39.63;19.98;;;15.40;99.90;;;;;;5089431;28;20051;-58
2022/10/15 09:28:15;;;;;;;33.42;18.05;;;15.40;99.90;;;;;;5090121;28;20016;-59
2022/10/15 09:30:45;;;;;;;33.15;16.73;;;15.40;99.90;;;;;;5090034;28;20047;-56
2022/10/15 09:33:34;;;;;;;32.47;17.25;;;15.50;99.90;;;;;;5089401;28;20030;-54
2022/10/15 09:36:08;;;;;;;30.63;14.45;;;15.60;99.90;;;;;;5090649;28;20100;-58
2022/10/15 09:38:58;;;;;;;29.35;14.88;;;15.70;99.90;;;;;;5090319;28;20542;-55
2022/10/15 09:41:55;;;;;;;27.95;14.68;;;15.80;99.90;;;;;;5090031;28;20020;-55
2022/10/15 09:44:23;;;;;;;30.98;16.65;;;15.90;99.90;;;;;;5089864;28;20040;-57
2022/10/15 09:46:50;;;;;;;27.73;14.90;;;16.00;99.90;;;;;;5089791;28;20031;-57
2022/10/15 09:49:26;;;;;;;25.83;14.27;;;16.00;99.90;;;;;;5090098;28;20016;-57
2022/10/15 09:52:17;;;;;;;29.00;14.57;;;16.20;99.90;;;;;;5090018;28;20059;-55
2022/10/15 09:55:14;;;;;;;25.02;12.82;;;16.40;99.90;;;;;;5089496;28;20031;-53
2022/10/15 09:57:45;;;;;;;23.63;13.35;;;16.50;99.90;;;;;;5089263;28;20081;-56
2022/10/15 10:00:12;;;;;;;22.17;12.30;;;16.60;99.90;;;;;;5090202;28;20073;-54
2022/10/15 10:02:38;;;;;;;23.60;12.35;;;16.60;99.90;;;;;;5088964;28;20047;-55
2022/10/15 10:05:39;;;;;;;22.48;13.05;;;16.70;99.90;;;;;;5089702;28;20480;-58
2022/10/15 10:08:21;;;;;;;19.45;11.10;;;16.80;99.90;;;;;;5007092;28;20060;-54
2022/10/15 10:10:59;;;;;;;21.38;12.38;;;16.90;99.90;;;;;;5082058;28;20036;-52
2022/10/15 10:13:31;;;;;;;21.35;12.38;;;16.80;99.90;;;;;;5089739;28;20076;-55
2022/10/15 10:16:05;;;;;;;19.00;11.20;;;16.80;99.90;;;;;;5089346;28;20035;-53
2022/10/15 10:18:31;;;;;;;23.20;13.60;;;16.80;99.90;;;;;;5089468;28;20055;-54
2022/10/15 10:21:02;;;;;;;24.20;14.65;;;16.70;99.90;;;;;;5089841;28;20481;-54
2022/10/15 10:23:34;;;;;;;22.35;12.82;;;16.60;99.90;;;;;;5089539;28;20490;-54
2022/10/15 10:26:10;;;;;;;22.77;13.82;;;16.50;99.90;;;;;;5089752;28;20082;-47
2022/10/15 10:28:53;;;;;;;22.23;13.27;;;16.50;99.90;;;;;;5089594;28;20016;-59
2022/10/15 10:31:28;;;;;;;20.20;11.85;;;16.50;99.90;;;;;;5089479;28;20028;-53
2022/10/15 10:33:53;;;;;;;17.83;9.48;;;16.50;99.90;;;;;;5089578;28;20495;-57
2022/10/15 10:36:25;;;;;;;17.83;9.63;;;16.60;99.90;;;;;;5089562;28;20036;-57
2022/10/15 10:39:28;;;;;;;19.48;9.55;;;16.70;99.90;;;;;;5089785;28;20009;-61
2022/10/15 10:42:06;;;;;;;17.45;9.75;;;16.80;99.90;;;;;;5092425;28;20051;-60
2022/10/15 10:44:45;;;;;;;20.83;12.45;;;16.70;99.90;;;;;;5089619;28;20051;-60
2022/10/15 10:47:10;;;;;;;18.85;11.50;;;16.70;99.90;;;;;;5092629;28;20032;-58
2022/10/15 10:49:39;;;;;;;18.00;10.60;;;16.60;99.90;;;;;;5091707;28;20024;-67
2022/10/15 10:52:17;;;;;;;17.23;10.27;;;16.50;99.90;;;;;;5091780;28;20110;-52
2022/10/15 10:54:43;;;;;;;18.45;10.35;;;16.50;99.90;;;;;;5091877;28;20058;-63
2022/10/15 10:57:13;;;;;;;19.80;10.80;;;16.40;99.90;;;;;;5092851;28;20070;-56
2022/10/15 10:59:51;;;;;;;18.25;10.73;;;16.30;99.90;;;;;;5092540;28;20418;-57
2022/10/15 11:02:16;;;;;;;21.10;11.73;;;16.20;99.90;;;;;;5092452;28;20027;-58
2022/10/15 11:04:42;;;;;;;18.48;11.13;;;16.20;99.90;;;;;;5090893;28;20028;-66
2022/10/15 11:07:44;;;;;;;18.45;11.27;;;16.10;99.90;;;;;;5093318;28;20039;-59
2022/10/15 11:10:13;;;;;;;21.20;11.35;;;16.00;99.90;;;;;;5093517;28;20479;-66
2022/10/15 11:13:06;;;;;;;18.67;11.13;;;16.00;99.90;;;;;;5092204;28;20020;-59
2022/10/15 11:15:35;;;;;;;16.95;10.15;;;16.00;99.90;;;;;;5093148;28;20028;-59
2022/10/15 11:18:15;;;;;;;19.17;10.15;;;16.00;99.90;;;;;;5093003;28;20051;-59
2022/10/15 11:20:55;;;;;;;18.55;10.40;;;16.00;99.90;;;;;;5093101;28;20052;-59
2022/10/15 11:23:53;;;;;;;18.70;10.20;;;16.00;99.90;;;;;;5093030;28;20032;-57
2022/10/15 11:26:47;;;;;;;21.20;10.35;;;16.00;99.90;;;;;;5069406;28;20179;-58
2022/10/15 11:29:49;;;;;;;18.85;11.50;;;16.00;99.90;;;;;;5093611;28;20027;-57
2022/10/15 11:32:22;;;;;;;24.77;15.75;;;15.90;99.90;;;;;;5091641;28;20395;-58
2022/10/15 11:35:13;;;;;;;28.50;18.65;;;16.00;99.90;;;;;;5092907;28;20112;-56
2022/10/15 11:37:45;;;;;;;;;;;15.90;99.90;;;;;;5093597;28;20020;-50
2022/10/15 11:40:31;;;;;;;;;;;15.90;99.90;;;;;;5087623;28;20304;-67
2022/10/15 11:43:22;;;;;;;20.08;11.38;;;15.90;99.90;;;;;;5085092;28;21283;-57
2022/10/15 11:46:19;;;;;;;27.77;14.80;;;15.90;99.90;;;;;;5086860;28;20032;-56
2022/10/15 11:49:22;;;;;;;27.92;16.98;;;15.90;99.90;;;;;;5091262;28;20044;-58
2022/10/15 11:51:48;;;;;;;27.75;16.40;;;15.90;99.90;;;;;;5089555;28;20035;-64
2022/10/15 11:55:03;;;;;;;24.40;14.60;;;15.80;99.90;;;;;;5089202;28;20020;-62
2022/10/15 11:57:32;;;;;;;30.95;19.50;;;15.90;99.90;;;;;;5085976;28;20250;-55
2022/10/15 12:00:04;;;;;;;28.10;17.67;;;15.90;99.90;;;;;;5090123;28;20024;-56
2022/10/15 12:02:35;;;;;;;23.30;13.85;;;15.90;99.90;;;;;;5088816;28;20066;-55
2022/10/15 12:05:18;;;;;;;19.88;12.63;;;15.90;99.90;;;;;;5089768;28;20039;-52
2022/10/15 12:07:48;;;;;;;22.63;12.73;;;15.90;99.90;;;;;;5089065;28;20069;-56
2022/10/15 12:10:53;;;;;;;24.23;15.40;;;16.00;99.90;;;;;;5090738;28;20108;-56
2022/10/15 12:13:51;;;;;;;28.27;17.15;;;16.00;99.90;;;;;;5089515;28;20031;-57
2022/10/15 12:16:28;;;;;;;17.73;10.27;;;16.10;99.90;;;;;;5085426;28;20063;-58
2022/10/15 12:19:19;;;;;;;13.00;7.63;;;16.10;99.90;;;;;;5088735;28;20032;-60
2022/10/15 12:21:54;;;;;;;14.77;9.40;;;16.10;99.90;;;;;;5089581;28;20071;-58
2022/10/15 12:24:46;;;;;;;19.23;13.32;;;16.10;99.90;;;;;;5090742;28;20067;-56
2022/10/15 12:27:23;;;;;;;26.92;17.33;;;16.20;99.90;;;;;;5079350;28;20012;-57
2022/10/15 12:30:15;;;;;;;17.83;9.98;;;16.20;99.90;;;;;;5089162;28;20028;-56
2022/10/15 12:32:48;;;;;;;11.93;7.20;;;16.10;99.90;;;;;;5086577;28;20051;-56
2022/10/15 12:35:14;;;;;;;8.23;5.55;;;16.20;99.90;;;;;;5089519;28;20016;-54
2022/10/15 12:37:41;;;;;;;11.27;7.95;;;16.20;99.90;;;;;;5089718;28;20377;-56
2022/10/15 12:40:30;;;;;;;15.13;10.07;;;16.20;99.90;;;;;;5089652;28;20504;-54
2022/10/15 12:43:18;;;;;;;20.17;12.90;;;16.30;99.90;;;;;;5086157;28;20038;-57
2022/10/15 12:45:51;;;;;;;18.13;11.93;;;16.30;99.90;;;;;;5085069;28;20090;-57
2022/10/15 12:48:29;;;;;;;12.75;8.13;;;16.30;99.90;;;;;;5084649;28;20016;-62
2022/10/15 12:51:20;;;;;;;9.38;6.63;;;16.30;99.90;;;;;;5084117;28;20068;-55